KNQA/NQA METAR and TAF weather

Enter ICAO airport designator
Station Type Date Time Source
KNQA METAR 2019/08/22 19:50 UTC NOAA

KNQA 221950Z 33013G25KT 10SM BKN024 30/23 A2997


Station Type Date Time Source
KNQA Decoded METAR 2019/08/22 19:50 UTC NOAA

Station name not available
Aug 22, 2019 - 03:50 PM EDT / 2019.08.22 1950 UTC
Wind: from the NNW (330 degrees) at 15 MPH (13 KT) gusting to 29 MPH (25 KT):0
Visibility: 10 mile(s):0
Sky conditions: mostly cloudy
Temperature: 86 F (30 C)
Heat index: 93.4 F (34.1 C):1
Dew Point: 73 F (23 C)
Relative Humidity: 66%
Pressure (altimeter): 29.97 in. Hg (1014 hPa)
ob: KNQA 221950Z 33013G25KT 10SM BKN024 30/23 A2997
cycle: 20

Station Type Date Time Source
KNQA TAF UTC NOAA

Error!

Example: see airport list